Time;durP1;ratioP1;P1;durP2;ratioP2;P2;SDS_P1;SDS_P2;PMS_P1;PMS_P2;Temp;Humidity;BMP_temperature;BMP_pressure;BME280_temperature;BME280_humidity;BME280_pressure;Samples;Min_cycle;Max_cycle;Signal;HPM_P1;HPM_P2
2023/04/30 00:01:45;;;;;;;18.60;9.13;;;;;;;-143.48;89.39;118439.88;5037649;28;20375;-67
2023/04/30 00:04:10;;;;;;;21.05;9.88;;;;;;;-143.48;90.27;118439.88;5055667;28;20036;-67
2023/04/30 00:06:35;;;;;;;18.90;9.50;;;;;;;-143.48;90.74;118439.88;5037900;28;20531;-67
2023/04/30 00:09:01;;;;;;;21.63;9.57;;;;;;;-143.48;90.54;118439.88;5055726;28;20064;-67
2023/04/30 00:11:26;;;;;;;18.65;9.07;;;;;;;-143.48;90.88;118439.88;5055439;28;20472;-67
2023/04/30 00:13:52;;;;;;;23.13;10.30;;;;;;;-143.48;91.36;118439.88;5037313;28;20025;-67
2023/04/30 00:16:17;;;;;;;21.45;9.73;;;;;;;-143.48;91.54;118439.88;5037462;28;20028;-68
2023/04/30 00:18:42;;;;;;;18.92;9.50;;;;;;;-143.48;91.06;118439.88;5055174;28;20025;-69
2023/04/30 00:21:08;;;;;;;16.85;9.07;;;;;;;-143.48;91.38;118439.88;5055411;28;20392;-67
2023/04/30 00:23:33;;;;;;;20.60;9.65;;;;;;;-143.48;91.87;118439.88;5055178;28;20031;-68
2023/04/30 00:25:59;;;;;;;18.40;9.45;;;;;;;-143.48;91.58;118439.88;5055200;28;20117;-69
2023/04/30 00:28:24;;;;;;;20.60;9.68;;;;;;;-143.48;91.41;118439.88;5055368;28;20028;-68
2023/04/30 00:30:50;;;;;;;19.65;8.82;;;;;;;-143.48;91.16;118439.88;5036941;28;20024;-68
2023/04/30 00:33:15;;;;;;;17.77;8.98;;;;;;;-143.48;91.48;118439.88;5055105;28;20079;-67
2023/04/30 00:35:41;;;;;;;16.65;9.68;;;;;;;-143.48;91.88;118439.88;5055074;28;20063;-68
2023/04/30 00:38:06;;;;;;;15.82;8.70;;;;;;;-143.48;91.38;118439.88;5055536;28;20060;-68
2023/04/30 00:40:34;;;;;;;13.93;9.02;;;;;;;-143.48;91.79;118439.88;5055615;28;20059;-69
2023/04/30 00:42:59;;;;;;;18.13;8.77;;;;;;;-143.48;91.01;118439.88;5055116;28;20111;-68
2023/04/30 00:45:24;;;;;;;16.15;8.43;;;;;;;-143.48;90.38;118439.88;5055139;28;20520;-68
2023/04/30 00:47:50;;;;;;;20.10;8.60;;;;;;;-143.48;90.95;118439.88;5055731;28;20025;-68
2023/04/30 00:50:15;;;;;;;14.25;8.05;;;;;;;-143.48;91.33;118439.88;5055634;28;20025;-68
2023/04/30 00:52:44;;;;;;;16.45;8.68;;;;;;;-143.48;91.44;118439.88;5037905;28;20021;-66
2023/04/30 00:55:13;;;;;;;15.75;8.77;;;;;;;-143.48;91.88;118439.88;5038599;28;20025;-67
2023/04/30 00:57:39;;;;;;;17.02;9.13;;;;;;;-143.48;92.47;118439.88;5055952;28;20479;-66
2023/04/30 01:00:08;;;;;;;18.80;9.35;;;;;;;-143.48;92.56;118439.88;5038472;28;20021;-67
2023/04/30 01:02:34;;;;;;;21.52;9.30;;;;;;;-143.48;92.37;118439.88;5041193;28;20029;-72
2023/04/30 01:05:02;;;;;;;17.38;9.23;;;;;;;-143.48;91.77;118439.88;5046444;28;20070;-70
2023/04/30 01:07:28;;;;;;;16.02;8.77;;;;;;;-143.48;91.73;118439.88;5045628;28;20075;-71
2023/04/30 01:09:53;;;;;;;17.33;8.82;;;;;;;-143.48;92.37;118439.88;5063105;28;20025;-67
2023/04/30 01:12:43;;;;;;;14.30;8.88;;;;;;;-143.48;92.25;118439.88;5064169;28;20035;-72
2023/04/30 01:15:31;;;;;;;17.95;9.15;;;;;;;-143.48;92.00;118439.88;5045976;28;20025;-70
2023/04/30 01:18:09;;;;;;;20.90;9.45;;;;;;;-143.48;92.78;118439.88;5063936;28;20411;-72
2023/04/30 01:20:43;;;;;;;19.30;9.32;;;;;;;-143.48;92.58;118439.88;5047698;28;20101;-71
2023/04/30 01:23:41;;;;;;;19.00;9.40;;;;;;;-143.48;92.73;118439.88;5039749;28;20050;-67
2023/04/30 01:26:18;;;;;;;22.50;9.35;;;;;;;-143.48;91.80;118439.88;5056554;28;20040;-67
2023/04/30 01:28:45;;;;;;;16.30;8.65;;;;;;;-143.48;91.97;118439.88;5056770;28;20099;-67
2023/04/30 01:31:12;;;;;;;20.95;8.55;;;;;;;-143.48;91.75;118439.88;5056639;28;20032;-70
2023/04/30 01:33:38;;;;;;;19.52;9.15;;;;;;;-143.48;90.89;118439.88;5055946;28;20025;-68
2023/04/30 01:36:03;;;;;;;16.67;8.55;;;;;;;-143.48;90.16;118439.88;5055664;28;20051;-68
2023/04/30 01:38:49;;;;;;;16.75;8.82;;;;;;;-143.48;89.99;118439.88;5038495;28;20154;-68
2023/04/30 01:41:26;;;;;;;16.00;8.95;;;;;;;-143.48;89.83;118439.88;5037327;28;20109;-67
2023/04/30 01:44:41;;;;;;;16.50;8.57;;;;;;;-143.48;90.38;118439.88;5054748;28;20028;-67
2023/04/30 01:47:28;;;;;;;15.45;8.70;;;;;;;-143.48;90.39;118439.88;5054624;28;20051;-67
2023/04/30 01:50:18;;;;;;;16.98;8.30;;;;;;;-143.48;89.76;118439.88;5054170;28;20023;-67
2023/04/30 01:52:55;;;;;;;20.13;9.00;;;;;;;-143.48;90.95;118439.88;5053698;28;20402;-67
2023/04/30 01:55:25;;;;;;;17.88;8.90;;;;;;;-143.48;90.77;118439.88;5053732;28;20029;-67
2023/04/30 01:57:58;;;;;;;19.17;8.85;;;;;;;-143.48;90.35;118439.88;5053604;28;20133;-67
2023/04/30 02:00:29;;;;;;;18.75;9.85;;;;;;;-143.48;91.96;118439.88;5053111;28;20021;-68
2023/04/30 02:02:55;;;;;;;19.15;9.77;;;;;;;-143.48;91.98;118439.88;5053566;28;20055;-68
2023/04/30 02:05:20;;;;;;;19.40;9.50;;;;;;;-143.48;92.97;118439.88;5053696;28;20052;-67
2023/04/30 02:07:49;;;;;;;23.30;10.18;;;;;;;-143.48;92.99;118439.88;5053317;28;20155;-68
2023/04/30 02:10:16;;;;;;;17.55;9.82;;;;;;;-143.48;93.72;118439.88;5053303;28;20095;-68
2023/04/30 02:12:41;;;;;;;18.80;9.70;;;;;;;-143.48;93.66;118439.88;5035539;28;20037;-67
2023/04/30 02:15:08;;;;;;;22.80;10.30;;;;;;;-143.48;93.00;118439.88;5053462;28;20021;-67
2023/04/30 02:17:33;;;;;;;24.73;10.40;;;;;;;-143.48;93.71;118439.88;5053353;28;20538;-68
2023/04/30 02:19:59;;;;;;;19.33;9.45;;;;;;;-143.48;94.05;118439.88;5035073;28;20029;-68
2023/04/30 02:22:25;;;;;;;16.08;9.68;;;;;;;-143.48;93.63;118439.88;5053410;28;20477;-68
2023/04/30 02:24:52;;;;;;;17.35;9.20;;;;;;;-143.48;93.35;118439.88;5035465;28;20067;-68
2023/04/30 02:27:18;;;;;;;19.80;9.30;;;;;;;-143.48;93.84;118439.88;5053465;28;20025;-66
2023/04/30 02:29:44;;;;;;;19.60;9.43;;;;;;;-143.48;92.83;118439.88;5053423;28;20021;-68
2023/04/30 02:32:09;;;;;;;16.35;9.23;;;;;;;-143.48;93.23;118439.88;5053379;28;20033;-68
2023/04/30 02:34:34;;;;;;;21.38;9.55;;;;;;;-143.48;92.69;118439.88;5053153;28;20024;-68
2023/04/30 02:37:01;;;;;;;16.27;9.18;;;;;;;-143.48;92.06;118439.88;5035454;28;20075;-67
2023/04/30 02:39:26;;;;;;;19.55;9.75;;;;;;;-143.48;91.77;118439.88;5053038;28;20040;-67
2023/04/30 02:41:52;;;;;;;16.77;8.77;;;;;;;-143.48;91.84;118439.88;5053335;28;20025;-67
2023/04/30 02:44:17;;;;;;;15.88;9.23;;;;;;;-143.48;91.95;118439.88;5052851;28;20053;-67
2023/04/30 02:46:42;;;;;;;18.05;9.70;;;;;;;-143.48;92.30;118439.88;5053069;28;20057;-68
2023/04/30 02:49:08;;;;;;;17.25;9.07;;;;;;;-143.48;92.21;118439.88;5053097;28;20100;-67
2023/04/30 02:51:33;;;;;;;20.88;9.32;;;;;;;-143.48;91.81;118439.88;5053367;28;20052;-67
2023/04/30 02:53:58;;;;;;;18.02;9.15;;;;;;;-143.48;91.62;118439.88;5034990;28;20494;-67
2023/04/30 02:56:24;;;;;;;19.10;8.65;;;;;;;-143.48;91.95;118439.88;5034999;28;20032;-68
2023/04/30 02:58:49;;;;;;;15.65;8.63;;;;;;;-143.48;91.78;118439.88;5035178;28;20021;-67
2023/04/30 03:01:14;;;;;;;17.23;9.02;;;;;;;-143.48;91.74;118439.88;5035011;28;20035;-68
2023/04/30 03:03:40;;;;;;;16.80;8.82;;;;;;;-143.48;91.98;118439.88;5053023;28;20055;-68
2023/04/30 03:06:05;;;;;;;23.90;10.30;;;;;;;-143.48;91.62;118439.88;5053064;28;20028;-68
2023/04/30 03:08:30;;;;;;;16.70;9.63;;;;;;;-143.48;91.88;118439.88;5053021;28;20429;-67
2023/04/30 03:10:56;;;;;;;15.93;9.10;;;;;;;-143.48;92.91;118439.88;5054061;28;20087;-67
2023/04/30 03:13:24;;;;;;;15.75;9.13;;;;;;;-143.48;92.97;118439.88;5038638;28;20472;-67
2023/04/30 03:15:56;;;;;;;18.65;9.48;;;;;;;-143.48;92.68;118439.88;5038630;28;20435;-68
2023/04/30 03:18:21;;;;;;;16.15;9.88;;;;;;;-143.48;93.54;118439.88;5056297;28;20021;-67
2023/04/30 03:20:46;;;;;;;17.38;9.57;;;;;;;-143.48;93.41;118439.88;5038470;28;20037;-67
2023/04/30 03:23:11;;;;;;;15.65;9.32;;;;;;;-143.48;93.22;118439.88;5038308;28;20103;-68
2023/04/30 03:25:37;;;;;;;19.65;10.43;;;;;;;-143.48;93.88;118439.88;5056206;28;20020;-69
2023/04/30 03:28:02;;;;;;;20.92;10.18;;;;;;;-143.48;94.00;118439.88;5056092;28;20066;-68
2023/04/30 03:30:27;;;;;;;18.50;9.90;;;;;;;-143.48;94.15;118439.88;5055909;28;20017;-67
2023/04/30 03:32:53;;;;;;;17.42;9.90;;;;;;;-143.48;93.58;118439.88;5056136;28;20025;-67
2023/04/30 03:35:18;;;;;;;19.50;10.52;;;;;;;-143.48;94.79;118439.88;5038457;28;20025;-66
2023/04/30 03:37:43;;;;;;;19.98;9.88;;;;;;;-143.48;96.04;118439.88;5056135;28;20063;-69
2023/04/30 03:40:09;;;;;;;17.52;10.00;;;;;;;-143.48;96.07;118439.88;5055921;28;20100;-68
2023/04/30 03:42:34;;;;;;;17.58;10.25;;;;;;;-143.48;96.79;118439.88;5055789;28;20104;-68
2023/04/30 03:45:00;;;;;;;20.42;10.10;;;;;;;-143.48;97.17;118439.88;5055872;28;20049;-67
2023/04/30 03:47:25;;;;;;;17.35;9.98;;;;;;;-143.48;97.08;118439.88;5056075;28;20036;-67
2023/04/30 03:49:53;;;;;;;17.35;10.18;;;;;;;-143.48;96.35;118439.88;5055884;28;20031;-68
2023/04/30 03:52:19;;;;;;;19.95;9.93;;;;;;;-143.48;96.13;118439.88;5055963;28;20025;-67
2023/04/30 03:54:44;;;;;;;20.30;10.02;;;;;;;-143.48;95.67;118439.88;5037620;28;20032;-67
2023/04/30 03:57:11;;;;;;;17.85;9.85;;;;;;;-143.48;96.60;118439.88;5055944;28;20025;-67
2023/04/30 03:59:37;;;;;;;18.25;10.18;;;;;;;-143.48;97.14;118439.88;5055627;28;20488;-68
2023/04/30 04:02:02;;;;;;;17.35;10.05;;;;;;;-143.48;96.73;118439.88;5056792;28;20021;-68
2023/04/30 04:04:28;;;;;;;18.13;10.63;;;;;;;-143.48;97.54;118439.88;5055438;28;20032;-68
2023/04/30 04:06:54;;;;;;;18.48;10.48;;;;;;;-143.48;96.49;118439.88;5063302;28;20021;-70
2023/04/30 04:09:19;;;;;;;16.05;10.07;;;;;;;-143.48;96.99;118439.88;5047515;28;20021;-68
2023/04/30 04:11:44;;;;;;;18.80;10.27;;;;;;;-143.48;96.60;118439.88;5047348;28;20020;-67
2023/04/30 04:14:10;;;;;;;21.65;10.23;;;;;;;-143.48;96.99;118439.88;5062083;28;20067;-69
2023/04/30 04:16:36;;;;;;;20.02;10.52;;;;;;;-143.48;96.97;118439.88;5059844;28;20025;-74
2023/04/30 04:19:03;;;;;;;25.83;10.95;;;;;;;-143.48;97.29;118439.88;5059798;28;20028;-69
2023/04/30 04:21:28;;;;;;;18.20;10.85;;;;;;;-143.48;97.11;118439.88;5057403;28;20017;-69
2023/04/30 04:23:54;;;;;;;18.58;10.60;;;;;;;-143.48;98.19;118439.88;5038899;28;20131;-68
2023/04/30 04:26:20;;;;;;;17.83;10.15;;;;;;;-143.48;98.50;118439.88;5056217;28;20082;-68
2023/04/30 04:28:46;;;;;;;20.92;10.15;;;;;;;-143.48;96.93;118439.88;5060856;28;20029;-70
2023/04/30 04:31:12;;;;;;;18.65;9.57;;;;;;;-143.48;96.93;118439.88;5055946;28;20027;-68
2023/04/30 04:33:37;;;;;;;18.92;9.35;;;;;;;-143.48;96.45;118439.88;5054828;28;20025;-69
2023/04/30 04:36:03;;;;;;;17.88;9.40;;;;;;;-143.48;95.73;118439.88;5037039;28;20056;-68
2023/04/30 04:38:28;;;;;;;16.58;9.00;;;;;;;-143.48;96.46;118439.88;5056367;28;20108;-67
2023/04/30 04:40:55;;;;;;;18.00;9.20;;;;;;;-143.48;97.21;118439.88;5036964;28;20029;-67
2023/04/30 04:43:21;;;;;;;13.32;8.50;;;;;;;-143.48;97.31;118439.88;5036751;28;20554;-66
2023/04/30 04:45:51;;;;;;;15.10;8.48;;;;;;;-143.48;96.88;118439.88;5054718;28;20049;-66
2023/04/30 04:48:16;;;;;;;14.65;8.50;;;;;;;-143.48;95.95;118439.88;5054726;28;20057;-66
2023/04/30 04:50:41;;;;;;;13.95;7.97;;;;;;;-143.48;95.28;118439.88;5054769;28;20357;-68
2023/04/30 04:53:06;;;;;;;13.40;8.07;;;;;;;-143.48;95.91;118439.88;5036500;28;20043;-68
2023/04/30 04:55:32;;;;;;;15.93;7.80;;;;;;;-143.48;95.25;118439.88;5054650;28;20403;-67
2023/04/30 04:57:57;;;;;;;15.90;7.70;;;;;;;-143.48;95.20;118439.88;5054340;28;20029;-67
2023/04/30 05:00:22;;;;;;;14.30;8.25;;;;;;;-143.48;94.99;118439.88;5054430;28;20082;-68
2023/04/30 05:02:48;;;;;;;16.42;8.02;;;;;;;-143.48;94.61;118439.88;5054350;28;20024;-67
2023/04/30 05:05:14;;;;;;;14.05;7.70;;;;;;;-143.48;94.95;118439.88;5054210;28;20465;-67
2023/04/30 05:07:39;;;;;;;10.95;7.38;;;;;;;-143.48;94.64;118439.88;5054522;28;20032;-67
2023/04/30 05:10:06;;;;;;;15.73;7.45;;;;;;;-143.48;95.59;118439.88;5054214;28;20036;-67
2023/04/30 05:12:31;;;;;;;13.45;7.38;;;;;;;-143.48;94.81;118439.88;5054169;28;20370;-67
2023/04/30 05:14:57;;;;;;;12.73;7.68;;;;;;;-143.48;94.72;118439.88;5054324;28;20025;-67
2023/04/30 05:17:22;;;;;;;14.48;7.78;;;;;;;-143.48;93.89;118439.88;5054872;28;20094;-68
2023/04/30 05:19:49;;;;;;;15.02;7.43;;;;;;;-143.48;94.51;118439.88;5054041;28;20056;-68
2023/04/30 05:22:14;;;;;;;14.00;7.78;;;;;;;-143.48;93.66;118439.88;5054277;28;20079;-67
2023/04/30 05:24:40;;;;;;;13.73;7.50;;;;;;;-143.48;92.77;118439.88;5054613;28;20033;-67
2023/04/30 05:27:05;;;;;;;11.23;7.03;;;;;;;-143.48;92.06;118439.88;5054035;28;20074;-68
2023/04/30 05:29:31;;;;;;;13.30;6.90;;;;;;;-143.48;90.97;118439.88;5054277;28;20096;-67
2023/04/30 05:31:56;;;;;;;12.95;6.95;;;;;;;-143.48;92.08;118439.88;5035784;28;20032;-67
2023/04/30 05:34:21;;;;;;;12.30;7.20;;;;;;;-143.48;92.36;118439.88;5055664;28;20025;-68
2023/04/30 05:36:47;;;;;;;13.48;7.20;;;;;;;-143.48;91.90;118439.88;5035960;28;20461;-67
2023/04/30 05:39:13;;;;;;;9.93;6.80;;;;;;;-143.48;92.04;118439.88;5053833;28;20029;-66
2023/04/30 05:41:38;;;;;;;13.02;7.22;;;;;;;-143.48;91.74;118439.88;5053958;28;20064;-67
2023/04/30 05:44:03;;;;;;;12.52;6.72;;;;;;;-143.48;91.61;118439.88;5054070;28;20028;-66
2023/04/30 05:46:29;;;;;;;13.35;7.07;;;;;;;-143.48;90.38;118439.88;5053928;28;20021;-69
2023/04/30 05:48:54;;;;;;;13.32;6.85;;;;;;;-143.48;90.73;118439.88;5053847;28;20025;-69
2023/04/30 05:51:20;;;;;;;13.30;6.60;;;;;;;-143.48;90.48;118439.88;5053868;28;20104;-68
2023/04/30 05:53:45;;;;;;;10.60;6.53;;;;;;;-143.48;88.47;118439.88;5053824;28;20070;-68
2023/04/30 05:56:11;;;;;;;10.85;6.53;;;;;;;-143.48;69.40;118439.88;5053546;28;20483;-69
2023/04/30 05:58:36;;;;;;;11.95;5.88;;;;;;;-143.48;58.30;118439.88;5035946;28;20547;-69
2023/04/30 06:01:02;;;;;;;9.23;5.50;;;;;;;-143.48;54.32;118439.88;5053402;28;20061;-68
2023/04/30 06:03:27;;;;;;;8.50;4.72;;;;;;;-143.48;54.71;118439.88;5053722;28;20021;-68
2023/04/30 06:05:53;;;;;;;6.95;4.50;;;;;;;-143.48;52.15;118439.88;5053597;28;20021;-70
2023/04/30 06:08:18;;;;;;;9.73;5.00;;;;;;;-143.48;51.41;118439.88;5053160;28;20024;-67
2023/04/30 06:10:43;;;;;;;9.45;4.70;;;;;;;-143.48;50.19;118439.88;5054581;28;20013;-67
2023/04/30 06:13:09;;;;;;;7.18;4.25;;;;;;;-143.48;48.98;118439.88;5053881;28;20024;-66
2023/04/30 06:15:34;;;;;;;9.57;3.90;;;;;;;-143.48;50.45;118439.88;5053548;28;20471;-67
2023/04/30 06:18:00;;;;;;;8.25;4.03;;;;;;;-143.48;49.40;118439.88;5053564;28;20032;-68
2023/04/30 06:20:26;;;;;;;6.47;3.92;;;;;;;-143.48;49.20;118439.88;5035128;28;20476;-68
2023/04/30 06:22:51;;;;;;;6.90;4.22;;;;;;;-143.48;47.79;118439.88;5053585;28;20053;-68
2023/04/30 06:25:16;;;;;;;7.13;4.00;;;;;;;-143.48;46.47;118439.88;5035171;28;20029;-68
2023/04/30 06:27:42;;;;;;;6.28;4.03;;;;;;;-143.48;49.08;118439.88;5035297;28;20036;-70
2023/04/30 06:30:08;;;;;;;7.20;4.00;;;;;;;-143.48;45.97;118439.88;5052020;28;20482;-69
2023/04/30 06:32:33;;;;;;;6.97;3.97;;;;;;;-143.48;46.93;118439.88;5051195;28;20050;-69
2023/04/30 06:34:59;;;;;;;5.25;3.70;;;;;;;-143.48;47.17;118439.88;5032462;28;20028;-70
2023/04/30 06:37:24;;;;;;;8.15;4.00;;;;;;;-143.48;46.34;118439.88;5050441;28;20028;-69
2023/04/30 06:39:50;;;;;;;6.97;3.92;;;;;;;-143.48;45.13;118439.88;5032430;28;20115;-68
2023/04/30 06:42:16;;;;;;;5.93;3.65;;;;;;;-143.48;44.51;118439.88;5032631;28;20036;-69
2023/04/30 06:44:41;;;;;;;6.13;3.38;;;;;;;-143.48;42.35;118439.88;5051318;28;20045;-70
2023/04/30 06:47:06;;;;;;;6.28;3.80;;;;;;;-143.48;46.02;118439.88;5055388;28;20025;-68
2023/04/30 06:49:32;;;;;;;8.48;3.55;;;;;;;-143.48;45.38;118439.88;5038184;28;20020;-68
2023/04/30 06:51:57;;;;;;;6.88;3.75;;;;;;;-143.48;45.58;118439.88;5038959;28;20494;-67
2023/04/30 06:54:25;;;;;;;6.50;3.70;;;;;;;-143.48;45.80;118439.88;5056847;28;20017;-68
2023/04/30 06:56:50;;;;;;;10.65;3.63;;;;;;;-143.48;45.64;118439.88;5038934;28;20060;-68
2023/04/30 06:59:16;;;;;;;5.93;3.50;;;;;;;-143.48;47.90;118439.88;5056662;28;20306;-68
2023/04/30 07:01:42;;;;;;;7.68;3.58;;;;;;;-143.48;46.09;118439.88;5038790;28;20404;-68
2023/04/30 07:04:07;;;;;;;8.25;3.22;;;;;;;-143.48;46.43;118439.88;5056563;28;20021;-68
2023/04/30 07:06:32;;;;;;;7.68;3.42;;;;;;;-143.48;44.74;118439.88;5057110;28;20033;-68
2023/04/30 07:08:58;;;;;;;5.07;3.25;;;;;;;-143.48;43.46;118439.88;5059768;28;20028;-68
2023/04/30 07:11:23;;;;;;;6.22;3.13;;;;;;;-143.48;42.17;118439.88;5062872;28;20112;-68
2023/04/30 07:13:48;;;;;;;7.18;3.50;;;;;;;-143.48;43.71;118439.88;5045726;28;20033;-68
2023/04/30 07:16:15;;;;;;;7.45;3.42;;;;;;;-143.48;43.49;118439.88;5063343;28;20031;-69
2023/04/30 07:18:41;;;;;;;6.43;3.53;;;;;;;-143.48;44.79;118439.88;5063201;28;20025;-69
2023/04/30 07:21:07;;;;;;;6.93;3.45;;;;;;;-143.48;47.11;118439.88;5040796;28;20025;-68
2023/04/30 07:23:33;;;;;;;5.05;3.10;;;;;;;-143.48;46.74;118439.88;5056099;28;20021;-68
2023/04/30 07:25:59;;;;;;;6.72;3.40;;;;;;;-143.48;44.43;118439.88;5055917;28;20029;-68
2023/04/30 07:28:24;;;;;;;6.53;3.30;;;;;;;-143.48;44.45;118439.88;5056087;28;20058;-68
2023/04/30 07:30:50;;;;;;;7.43;3.55;;;;;;;-143.48;46.92;118439.88;5056311;28;20017;-68
2023/04/30 07:33:15;;;;;;;9.23;3.33;;;;;;;-143.48;45.21;118439.88;5055952;28;20044;-68
2023/04/30 07:35:40;;;;;;;4.90;3.38;;;;;;;-143.48;46.16;118439.88;5055803;28;20033;-68
2023/04/30 07:38:06;;;;;;;6.40;3.30;;;;;;;-143.48;46.00;118439.88;5038249;28;20059;-69
2023/04/30 07:40:31;;;;;;;8.90;3.75;;;;;;;-143.48;45.12;118439.88;5055823;28;20037;-68
2023/04/30 07:42:56;;;;;;;6.40;3.70;;;;;;;-143.48;44.80;118439.88;5037641;28;20392;-68
2023/04/30 07:45:22;;;;;;;6.05;3.70;;;;;;;-143.48;44.61;118439.88;5037703;28;20057;-68
2023/04/30 07:47:47;;;;;;;6.88;4.25;;;;;;;-143.48;46.42;118439.88;5055885;28;20033;-68
2023/04/30 07:50:13;;;;;;;7.53;3.90;;;;;;;-143.48;44.61;118439.88;5037964;28;20031;-68
2023/04/30 07:52:39;;;;;;;9.20;3.72;;;;;;;-143.48;45.07;118439.88;5037882;28;20040;-68
2023/04/30 07:55:05;;;;;;;8.98;3.88;;;;;;;-143.48;47.00;118439.88;5055987;28;20079;-68
2023/04/30 07:57:30;;;;;;;7.55;4.22;;;;;;;-143.48;49.72;118439.88;5036907;28;20029;-70
2023/04/30 07:59:56;;;;;;;7.72;4.03;;;;;;;-143.48;49.21;118439.88;5055549;28;20384;-67
2023/04/30 08:02:21;;;;;;;8.25;4.50;;;;;;;-143.48;48.82;118439.88;5055844;28;20063;-68
2023/04/30 08:04:47;;;;;;;7.43;3.70;;;;;;;-143.48;50.38;118439.88;5055591;28;20063;-69
2023/04/30 08:07:14;;;;;;;6.45;3.70;;;;;;;-143.48;51.78;118439.88;5055460;28;20032;-68
2023/04/30 08:09:40;;;;;;;9.48;4.57;;;;;;;-143.48;50.07;118439.88;5037431;28;20035;-67
2023/04/30 08:12:05;;;;;;;6.65;4.10;;;;;;;-143.48;51.20;118439.88;5055420;28;20052;-68
2023/04/30 08:14:31;;;;;;;9.63;4.00;;;;;;;-143.48;49.63;118439.88;5055264;28;20028;-68
2023/04/30 08:16:58;;;;;;;9.05;4.00;;;;;;;-143.48;49.47;118439.88;5037311;28;20027;-68
2023/04/30 08:19:26;;;;;;;7.00;3.90;;;;;;;-143.48;51.47;118439.88;5037235;28;20021;-67
2023/04/30 08:21:52;;;;;;;7.60;4.00;;;;;;;-143.48;52.34;118439.88;5037143;28;20174;-68
2023/04/30 08:24:17;;;;;;;7.18;4.10;;;;;;;-143.48;50.37;118439.88;5055049;28;20064;-68
2023/04/30 08:26:42;;;;;;;6.10;3.63;;;;;;;-143.48;49.53;118439.88;5036944;28;20389;-69
2023/04/30 08:29:08;;;;;;;8.18;3.80;;;;;;;-143.48;47.97;118439.88;5037069;28;20491;-67
2023/04/30 08:31:34;;;;;;;5.72;3.70;;;;;;;-143.48;48.15;118439.88;5054856;28;20113;-67
2023/04/30 08:33:59;;;;;;;7.97;3.92;;;;;;;-143.48;47.15;118439.88;5055101;28;20028;-69
2023/04/30 08:36:25;;;;;;;6.72;3.78;;;;;;;-143.48;48.60;118439.88;5055103;28;20031;-68
2023/04/30 08:38:50;;;;;;;6.75;3.80;;;;;;;-143.48;50.13;118439.88;5036876;28;20051;-67
2023/04/30 08:41:16;;;;;;;8.43;3.90;;;;;;;-143.48;47.90;118439.88;5054728;28;20135;-68
2023/04/30 08:43:43;;;;;;;5.90;3.85;;;;;;;-143.48;47.96;118439.88;5054736;28;20021;-68
2023/04/30 08:46:12;;;;;;;6.28;4.00;;;;;;;-143.48;47.41;118439.88;5036660;28;20132;-68
2023/04/30 08:48:38;;;;;;;5.40;3.13;;;;;;;-143.48;47.26;118439.88;5054589;28;20033;-69
2023/04/30 08:51:03;;;;;;;7.72;3.78;;;;;;;-143.48;46.73;118439.88;5054791;28;20025;-68
2023/04/30 08:53:40;;;;;;;7.10;3.22;;;;;;;-143.48;45.91;118439.88;5054668;28;20029;-68
2023/04/30 08:56:09;;;;;;;7.53;3.60;;;;;;;-143.48;47.20;118439.88;5054716;28;20025;-67
2023/04/30 08:58:34;;;;;;;7.15;4.18;;;;;;;-143.48;48.45;118439.88;5036600;28;20035;-68
2023/04/30 09:01:01;;;;;;;6.93;3.53;;;;;;;-143.48;47.98;118439.88;5054507;28;20021;-67
2023/04/30 09:03:27;;;;;;;8.35;3.50;;;;;;;-143.48;47.33;118439.88;5054526;28;20059;-67
2023/04/30 09:05:53;;;;;;;5.93;3.20;;;;;;;-143.48;45.34;118439.88;5054374;28;20104;-68
2023/04/30 09:08:42;;;;;;;7.60;3.40;;;;;;;-143.48;45.02;118439.88;5053312;28;20025;-68
2023/04/30 09:11:29;;;;;;;4.75;3.38;;;;;;;-143.48;46.63;118439.88;5054035;28;20346;-68
2023/04/30 09:13:58;;;;;;;5.68;3.38;;;;;;;-143.48;46.39;118439.88;5054198;28;20444;-68
2023/04/30 09:16:26;;;;;;;6.57;3.03;;;;;;;-143.48;46.95;118439.88;5054150;28;20408;-67
2023/04/30 09:18:51;;;;;;;4.57;2.92;;;;;;;-143.48;45.17;118439.88;5036247;28;20364;-67
2023/04/30 09:21:30;;;;;;;6.18;3.15;;;;;;;-143.48;47.86;118439.88;5054043;28;20032;-66
2023/04/30 09:23:58;;;;;;;6.15;3.20;;;;;;;-143.48;45.62;118439.88;5036205;28;20499;-68
2023/04/30 09:26:42;;;;;;;6.93;3.25;;;;;;;-143.48;45.54;118439.88;5054014;28;20119;-67
2023/04/30 09:29:09;;;;;;;6.35;3.15;;;;;;;-143.48;43.48;118439.88;5054058;28;20431;-66
2023/04/30 09:31:38;;;;;;;4.68;2.92;;;;;;;-143.48;44.27;118439.88;5053528;28;20505;-68
2023/04/30 09:34:05;;;;;;;6.35;3.83;;;;;;;-143.48;46.97;118439.88;5053764;28;20392;-68
2023/04/30 09:36:30;;;;;;;6.90;3.40;;;;;;;-143.48;46.15;118439.88;5053767;28;20032;-67
2023/04/30 09:39:04;;;;;;;7.13;3.40;;;;;;;-143.48;44.33;118439.88;5035730;28;20036;-67
2023/04/30 09:41:29;;;;;;;6.97;3.30;;;;;;;-143.48;44.88;118439.88;5053650;28;20073;-68
2023/04/30 09:43:56;;;;;;;5.65;3.03;;;;;;;-143.48;45.04;118439.88;5053767;28;20107;-67
2023/04/30 09:46:29;;;;;;;6.63;3.10;;;;;;;-143.48;46.52;118439.88;5053335;28;20056;-68
2023/04/30 09:48:57;;;;;;;6.30;3.20;;;;;;;-143.48;45.27;118439.88;5035703;28;20020;-69
2023/04/30 09:51:22;;;;;;;5.38;3.20;;;;;;;-143.48;44.23;118439.88;5035794;28;20078;-68
2023/04/30 09:53:50;;;;;;;7.75;3.05;;;;;;;-143.48;43.11;118439.88;5053449;28;20048;-67
2023/04/30 09:56:19;;;;;;;5.25;2.90;;;;;;;-143.48;44.23;118439.88;5053406;28;20056;-67
2023/04/30 09:58:50;;;;;;;7.28;3.40;;;;;;;-143.48;44.69;118439.88;5035515;28;20119;-67
2023/04/30 10:01:16;;;;;;;7.30;2.90;;;;;;;-143.48;43.84;118439.88;5053271;28;20075;-68
2023/04/30 10:03:42;;;;;;;5.57;3.13;;;;;;;-143.48;43.60;118439.88;5035398;28;20025;-68
2023/04/30 10:06:11;;;;;;;4.88;2.88;;;;;;;-143.48;43.88;118439.88;5053094;28;20025;-68
2023/04/30 10:08:42;;;;;;;5.93;2.72;;;;;;;-143.48;43.16;118439.88;5053450;28;20203;-69
2023/04/30 10:11:11;;;;;;;8.25;3.30;;;;;;;-143.48;44.09;118439.88;5053332;28;20025;-67
2023/04/30 10:13:37;;;;;;;6.22;3.13;;;;;;;-143.48;45.59;118439.88;5053719;28;20029;-68
2023/04/30 10:16:09;;;;;;;6.82;3.20;;;;;;;-143.48;44.90;118439.88;5053180;28;20029;-68
2023/04/30 10:18:38;;;;;;;6.45;3.25;;;;;;;-143.48;44.89;118439.88;5053110;28;20032;-68
2023/04/30 10:21:11;;;;;;;6.25;3.25;;;;;;;-143.48;46.40;118439.88;5056129;28;20029;-68
2023/04/30 10:23:38;;;;;;;7.30;3.10;;;;;;;-143.48;43.70;118439.88;5039438;28;20037;-68
2023/04/30 10:26:07;;;;;;;7.63;3.20;;;;;;;-143.48;42.63;118439.88;5039216;28;20036;-68
2023/04/30 10:28:33;;;;;;;8.20;3.60;;;;;;;-143.48;43.33;118439.88;5039741;28;20025;-69
2023/04/30 10:30:59;;;;;;;7.40;3.10;;;;;;;-143.48;43.79;118439.88;5057184;28;20476;-70
2023/04/30 10:33:31;;;;;;;7.00;3.20;;;;;;;-143.48;42.48;118439.88;5057108;28;20108;-68
2023/04/30 10:36:00;;;;;;;6.53;3.15;;;;;;;-143.48;43.64;118439.88;5057181;28;20060;-67
2023/04/30 10:38:28;;;;;;;8.15;3.65;;;;;;;-143.48;43.24;118439.88;5057060;28;20032;-68
2023/04/30 10:41:00;;;;;;;6.68;3.30;;;;;;;-143.48;43.70;118439.88;5057172;28;20043;-68
2023/04/30 10:43:26;;;;;;;6.80;3.38;;;;;;;-143.48;43.57;118439.88;5057030;28;20138;-68
2023/04/30 10:45:51;;;;;;;8.20;3.28;;;;;;;-143.48;44.47;118439.88;5039081;28;20049;-67
2023/04/30 10:48:24;;;;;;;5.97;3.40;;;;;;;-143.48;43.35;118439.88;5057136;28;20032;-67
2023/04/30 10:50:51;;;;;;;6.63;3.25;;;;;;;-143.48;43.28;118439.88;5056902;28;20129;-68
2023/04/30 10:53:20;;;;;;;4.65;3.00;;;;;;;-143.48;42.00;118439.88;5056787;28;20101;-68
2023/04/30 10:55:50;;;;;;;5.88;3.58;;;;;;;-143.48;42.53;118439.88;5038994;28;20396;-68
2023/04/30 10:58:25;;;;;;;4.72;3.00;;;;;;;-143.48;41.70;118439.88;5056904;28;20047;-68
2023/04/30 11:01:03;;;;;;;4.78;3.20;;;;;;;-143.48;42.18;118439.88;5056696;28;20025;-67
2023/04/30 11:03:30;;;;;;;5.88;3.03;;;;;;;-143.48;41.77;118439.88;5038876;28;20021;-68
2023/04/30 11:05:55;;;;;;;7.72;3.60;;;;;;;-143.48;41.99;118439.88;5056473;28;20021;-68